sensor_id;sensor_type;location;lat;lon;timestamp;P1;durP1;ratioP1;P2;durP2;ratioP2
50337;SDS011;46221;51.178;5.900;2023-02-12T00:01:14;16.52;;;12.25;;
50337;SDS011;46221;51.178;5.900;2023-02-12T00:03:41;15.00;;;11.45;;
50337;SDS011;46221;51.178;5.900;2023-02-12T00:06:08;14.35;;;11.52;;
50337;SDS011;46221;51.178;5.900;2023-02-12T00:08:35;15.48;;;11.45;;
50337;SDS011;46221;51.178;5.900;2023-02-12T00:11:06;15.45;;;12.02;;
50337;SDS011;46221;51.178;5.900;2023-02-12T00:13:34;15.00;;;11.98;;
50337;SDS011;46221;51.178;5.900;2023-02-12T00:16:05;15.63;;;11.35;;
50337;SDS011;46221;51.178;5.900;2023-02-12T00:18:36;15.15;;;11.13;;
50337;SDS011;46221;51.178;5.900;2023-02-12T00:21:03;13.63;;;11.02;;
50337;SDS011;46221;51.178;5.900;2023-02-12T00:23:30;15.77;;;12.35;;
50337;SDS011;46221;51.178;5.900;2023-02-12T00:25:57;16.17;;;12.35;;
50337;SDS011;46221;51.178;5.900;2023-02-12T00:28:23;13.98;;;11.20;;
50337;SDS011;46221;51.178;5.900;2023-02-12T00:30:50;15.48;;;12.32;;
50337;SDS011;46221;51.178;5.900;2023-02-12T00:33:17;14.45;;;11.38;;
50337;SDS011;46221;51.178;5.900;2023-02-12T00:35:43;15.02;;;11.40;;
50337;SDS011;46221;51.178;5.900;2023-02-12T00:38:09;15.10;;;11.85;;
50337;SDS011;46221;51.178;5.900;2023-02-12T00:40:36;16.00;;;12.15;;
50337;SDS011;46221;51.178;5.900;2023-02-12T00:43:02;14.93;;;12.40;;
50337;SDS011;46221;51.178;5.900;2023-02-12T00:45:29;17.08;;;12.50;;
50337;SDS011;46221;51.178;5.900;2023-02-12T00:47:55;14.98;;;11.25;;
50337;SDS011;46221;51.178;5.900;2023-02-12T00:50:21;15.05;;;11.48;;
50337;SDS011;46221;51.178;5.900;2023-02-12T00:52:48;14.82;;;11.18;;
50337;SDS011;46221;51.178;5.900;2023-02-12T00:55:14;16.80;;;12.00;;
50337;SDS011;46221;51.178;5.900;2023-02-12T00:57:41;15.55;;;11.93;;
50337;SDS011;46221;51.178;5.900;2023-02-12T01:00:08;19.23;;;12.35;;
50337;SDS011;46221;51.178;5.900;2023-02-12T01:02:34;16.60;;;12.43;;
50337;SDS011;46221;51.178;5.900;2023-02-12T01:05:01;15.90;;;12.65;;
50337;SDS011;46221;51.178;5.900;2023-02-12T01:07:28;16.85;;;13.43;;
50337;SDS011;46221;51.178;5.900;2023-02-12T01:09:54;16.10;;;12.32;;
50337;SDS011;46221;51.178;5.900;2023-02-12T01:12:20;14.88;;;12.10;;
50337;SDS011;46221;51.178;5.900;2023-02-12T01:14:47;16.48;;;12.02;;
50337;SDS011;46221;51.178;5.900;2023-02-12T01:17:13;14.40;;;11.98;;
50337;SDS011;46221;51.178;5.900;2023-02-12T01:19:40;16.25;;;12.57;;
50337;SDS011;46221;51.178;5.900;2023-02-12T01:22:06;14.07;;;11.60;;
50337;SDS011;46221;51.178;5.900;2023-02-12T01:24:33;16.98;;;11.80;;
50337;SDS011;46221;51.178;5.900;2023-02-12T01:26:59;13.98;;;11.27;;
50337;SDS011;46221;51.178;5.900;2023-02-12T01:29:25;13.65;;;11.32;;
50337;SDS011;46221;51.178;5.900;2023-02-12T01:31:52;14.35;;;11.75;;
50337;SDS011;46221;51.178;5.900;2023-02-12T01:34:18;14.80;;;11.35;;
50337;SDS011;46221;51.178;5.900;2023-02-12T01:36:45;13.98;;;11.13;;
50337;SDS011;46221;51.178;5.900;2023-02-12T01:39:12;14.63;;;11.32;;
50337;SDS011;46221;51.178;5.900;2023-02-12T01:41:39;14.25;;;11.23;;
50337;SDS011;46221;51.178;5.900;2023-02-12T01:44:10;15.63;;;12.27;;
50337;SDS011;46221;51.178;5.900;2023-02-12T01:46:38;16.35;;;11.98;;
50337;SDS011;46221;51.178;5.900;2023-02-12T01:49:06;16.90;;;11.68;;
50337;SDS011;46221;51.178;5.900;2023-02-12T01:51:37;15.93;;;11.27;;
50337;SDS011;46221;51.178;5.900;2023-02-12T01:54:06;15.05;;;11.25;;
50337;SDS011;46221;51.178;5.900;2023-02-12T01:56:35;14.68;;;11.75;;
50337;SDS011;46221;51.178;5.900;2023-02-12T01:59:03;16.20;;;11.88;;
50337;SDS011;46221;51.178;5.900;2023-02-12T02:01:30;14.93;;;11.75;;
50337;SDS011;46221;51.178;5.900;2023-02-12T02:04:03;16.95;;;12.52;;
50337;SDS011;46221;51.178;5.900;2023-02-12T02:06:35;16.37;;;11.57;;
50337;SDS011;46221;51.178;5.900;2023-02-12T02:09:09;16.30;;;12.20;;
50337;SDS011;46221;51.178;5.900;2023-02-12T02:11:35;15.50;;;11.88;;
50337;SDS011;46221;51.178;5.900;2023-02-12T02:14:20;15.88;;;12.18;;
50337;SDS011;46221;51.178;5.900;2023-02-12T02:22:43;16.88;;;12.05;;
50337;SDS011;46221;51.178;5.900;2023-02-12T02:28:06;14.32;;;11.80;;
50337;SDS011;46221;51.178;5.900;2023-02-12T02:30:39;15.20;;;12.00;;
50337;SDS011;46221;51.178;5.900;2023-02-12T02:33:23;14.60;;;11.18;;
50337;SDS011;46221;51.178;5.900;2023-02-12T02:41:43;14.32;;;11.40;;
50337;SDS011;46221;51.178;5.900;2023-02-12T02:44:17;14.52;;;11.77;;
50337;SDS011;46221;51.178;5.900;2023-02-12T02:46:49;15.15;;;11.02;;
50337;SDS011;46221;51.178;5.900;2023-02-12T02:49:26;15.02;;;11.80;;
50337;SDS011;46221;51.178;5.900;2023-02-12T02:52:00;13.80;;;11.05;;
50337;SDS011;46221;51.178;5.900;2023-02-12T02:54:33;14.85;;;11.60;;
50337;SDS011;46221;51.178;5.900;2023-02-12T02:57:21;16.30;;;12.55;;
50337;SDS011;46221;51.178;5.900;2023-02-12T02:59:53;14.10;;;11.23;;
50337;SDS011;46221;51.178;5.900;2023-02-12T03:02:27;17.30;;;12.38;;
50337;SDS011;46221;51.178;5.900;2023-02-12T03:04:58;12.77;;;10.40;;
50337;SDS011;46221;51.178;5.900;2023-02-12T03:10:10;13.52;;;10.25;;
50337;SDS011;46221;51.178;5.900;2023-02-12T03:15:43;14.10;;;10.60;;
50337;SDS011;46221;51.178;5.900;2023-02-12T03:18:18;13.93;;;11.35;;
50337;SDS011;46221;51.178;5.900;2023-02-12T03:20:52;14.73;;;11.00;;
50337;SDS011;46221;51.178;5.900;2023-02-12T03:23:24;12.68;;;10.00;;
50337;SDS011;46221;51.178;5.900;2023-02-12T03:26:02;14.60;;;11.60;;
50337;SDS011;46221;51.178;5.900;2023-02-12T03:28:33;14.52;;;11.70;;
50337;SDS011;46221;51.178;5.900;2023-02-12T03:31:13;14.00;;;10.88;;
50337;SDS011;46221;51.178;5.900;2023-02-12T03:33:57;14.15;;;11.20;;
50337;SDS011;46221;51.178;5.900;2023-02-12T03:39:24;15.88;;;10.90;;
50337;SDS011;46221;51.178;5.900;2023-02-12T03:42:08;15.25;;;11.32;;
50337;SDS011;46221;51.178;5.900;2023-02-12T03:49:58;15.77;;;12.38;;
50337;SDS011;46221;51.178;5.900;2023-02-12T03:52:31;15.02;;;11.52;;
50337;SDS011;46221;51.178;5.900;2023-02-12T03:54:59;15.85;;;11.85;;
50337;SDS011;46221;51.178;5.900;2023-02-12T03:57:26;15.43;;;11.75;;
50337;SDS011;46221;51.178;5.900;2023-02-12T03:59:57;13.98;;;11.18;;
50337;SDS011;46221;51.178;5.900;2023-02-12T04:02:26;14.82;;;11.30;;
50337;SDS011;46221;51.178;5.900;2023-02-12T04:04:53;15.30;;;11.20;;
50337;SDS011;46221;51.178;5.900;2023-02-12T04:07:19;14.50;;;10.60;;
50337;SDS011;46221;51.178;5.900;2023-02-12T04:09:46;13.88;;;10.88;;
50337;SDS011;46221;51.178;5.900;2023-02-12T04:12:20;14.18;;;11.57;;
50337;SDS011;46221;51.178;5.900;2023-02-12T04:15:15;14.00;;;11.07;;
50337;SDS011;46221;51.178;5.900;2023-02-12T04:17:58;14.35;;;11.52;;
50337;SDS011;46221;51.178;5.900;2023-02-12T04:20:38;16.48;;;11.02;;
50337;SDS011;46221;51.178;5.900;2023-02-12T04:31:09;13.38;;;10.82;;
50337;SDS011;46221;51.178;5.900;2023-02-12T04:37:16;14.40;;;10.73;;
50337;SDS011;46221;51.178;5.900;2023-02-12T04:39:46;13.90;;;11.00;;
50337;SDS011;46221;51.178;5.900;2023-02-12T04:42:14;16.15;;;11.70;;
50337;SDS011;46221;51.178;5.900;2023-02-12T04:44:42;14.05;;;10.52;;
50337;SDS011;46221;51.178;5.900;2023-02-12T04:47:10;15.40;;;11.48;;
50337;SDS011;46221;51.178;5.900;2023-02-12T04:49:41;15.25;;;10.95;;
50337;SDS011;46221;51.178;5.900;2023-02-12T04:52:09;13.73;;;11.55;;
50337;SDS011;46221;51.178;5.900;2023-02-12T04:54:35;14.35;;;11.10;;
50337;SDS011;46221;51.178;5.900;2023-02-12T04:57:02;13.75;;;10.35;;
50337;SDS011;46221;51.178;5.900;2023-02-12T04:59:29;13.77;;;11.02;;
50337;SDS011;46221;51.178;5.900;2023-02-12T05:01:55;15.35;;;11.88;;
50337;SDS011;46221;51.178;5.900;2023-02-12T05:04:22;14.88;;;11.48;;
50337;SDS011;46221;51.178;5.900;2023-02-12T05:06:48;13.48;;;10.48;;
50337;SDS011;46221;51.178;5.900;2023-02-12T05:09:15;14.93;;;11.20;;
50337;SDS011;46221;51.178;5.900;2023-02-12T05:11:43;14.90;;;10.98;;
50337;SDS011;46221;51.178;5.900;2023-02-12T05:14:10;13.88;;;10.73;;
50337;SDS011;46221;51.178;5.900;2023-02-12T05:16:37;13.68;;;10.55;;
50337;SDS011;46221;51.178;5.900;2023-02-12T05:19:03;12.38;;;10.23;;
50337;SDS011;46221;51.178;5.900;2023-02-12T05:21:30;13.55;;;10.35;;
50337;SDS011;46221;51.178;5.900;2023-02-12T05:23:56;14.45;;;11.43;;
50337;SDS011;46221;51.178;5.900;2023-02-12T05:26:23;14.30;;;10.20;;
50337;SDS011;46221;51.178;5.900;2023-02-12T05:28:49;16.50;;;11.35;;
50337;SDS011;46221;51.178;5.900;2023-02-12T05:31:17;14.20;;;10.93;;
50337;SDS011;46221;51.178;5.900;2023-02-12T05:33:46;15.15;;;11.52;;
50337;SDS011;46221;51.178;5.900;2023-02-12T05:36:15;14.15;;;10.48;;
50337;SDS011;46221;51.178;5.900;2023-02-12T05:38:43;14.40;;;11.25;;
50337;SDS011;46221;51.178;5.900;2023-02-12T05:41:10;13.50;;;10.95;;
50337;SDS011;46221;51.178;5.900;2023-02-12T05:43:42;15.25;;;11.25;;
50337;SDS011;46221;51.178;5.900;2023-02-12T05:46:13;13.75;;;11.00;;
50337;SDS011;46221;51.178;5.900;2023-02-12T05:48:40;13.18;;;10.45;;
50337;SDS011;46221;51.178;5.900;2023-02-12T05:51:07;13.48;;;10.80;;
50337;SDS011;46221;51.178;5.900;2023-02-12T05:53:39;15.82;;;11.45;;
50337;SDS011;46221;51.178;5.900;2023-02-12T05:56:11;14.70;;;11.07;;
50337;SDS011;46221;51.178;5.900;2023-02-12T05:58:40;14.52;;;11.15;;
50337;SDS011;46221;51.178;5.900;2023-02-12T06:01:13;15.73;;;11.02;;
50337;SDS011;46221;51.178;5.900;2023-02-12T06:03:41;16.77;;;10.77;;
50337;SDS011;46221;51.178;5.900;2023-02-12T06:06:08;17.00;;;11.02;;
50337;SDS011;46221;51.178;5.900;2023-02-12T06:08:37;13.13;;;9.77;;
50337;SDS011;46221;51.178;5.900;2023-02-12T06:11:05;13.77;;;10.00;;
50337;SDS011;46221;51.178;5.900;2023-02-12T06:13:34;13.52;;;10.48;;
50337;SDS011;46221;51.178;5.900;2023-02-12T06:16:01;17.48;;;10.48;;
50337;SDS011;46221;51.178;5.900;2023-02-12T06:18:28;13.48;;;10.43;;
50337;SDS011;46221;51.178;5.900;2023-02-12T06:20:55;14.13;;;10.38;;
50337;SDS011;46221;51.178;5.900;2023-02-12T06:23:21;12.85;;;9.82;;
50337;SDS011;46221;51.178;5.900;2023-02-12T06:25:49;15.10;;;11.02;;
50337;SDS011;46221;51.178;5.900;2023-02-12T06:28:16;14.40;;;10.40;;
50337;SDS011;46221;51.178;5.900;2023-02-12T06:30:43;16.38;;;10.65;;
50337;SDS011;46221;51.178;5.900;2023-02-12T06:33:10;13.52;;;10.73;;
50337;SDS011;46221;51.178;5.900;2023-02-12T06:35:37;15.48;;;11.00;;
50337;SDS011;46221;51.178;5.900;2023-02-12T06:38:04;14.43;;;10.75;;
50337;SDS011;46221;51.178;5.900;2023-02-12T06:40:31;15.52;;;10.30;;
50337;SDS011;46221;51.178;5.900;2023-02-12T06:42:58;14.65;;;10.68;;
50337;SDS011;46221;51.178;5.900;2023-02-12T06:45:25;14.50;;;10.50;;
50337;SDS011;46221;51.178;5.900;2023-02-12T06:47:52;13.98;;;10.18;;
50337;SDS011;46221;51.178;5.900;2023-02-12T06:50:18;14.57;;;11.27;;
50337;SDS011;46221;51.178;5.900;2023-02-12T06:52:45;14.82;;;10.85;;
50337;SDS011;46221;51.178;5.900;2023-02-12T06:55:11;16.63;;;10.68;;
50337;SDS011;46221;51.178;5.900;2023-02-12T06:57:38;15.80;;;11.15;;
50337;SDS011;46221;51.178;5.900;2023-02-12T07:00:05;14.52;;;10.65;;
50337;SDS011;46221;51.178;5.900;2023-02-12T07:02:32;15.13;;;10.77;;
50337;SDS011;46221;51.178;5.900;2023-02-12T07:04:58;14.30;;;10.35;;
50337;SDS011;46221;51.178;5.900;2023-02-12T07:07:25;15.30;;;10.57;;
50337;SDS011;46221;51.178;5.900;2023-02-12T07:09:51;13.55;;;10.18;;
50337;SDS011;46221;51.178;5.900;2023-02-12T07:12:18;13.93;;;9.77;;
50337;SDS011;46221;51.178;5.900;2023-02-12T07:14:44;12.90;;;10.13;;
50337;SDS011;46221;51.178;5.900;2023-02-12T07:17:11;13.45;;;10.30;;
50337;SDS011;46221;51.178;5.900;2023-02-12T07:19:37;11.98;;;9.15;;
50337;SDS011;46221;51.178;5.900;2023-02-12T07:22:03;15.35;;;11.13;;
50337;SDS011;46221;51.178;5.900;2023-02-12T07:24:30;15.00;;;10.32;;
50337;SDS011;46221;51.178;5.900;2023-02-12T07:26:56;15.80;;;10.95;;
50337;SDS011;46221;51.178;5.900;2023-02-12T07:29:23;14.00;;;10.85;;
50337;SDS011;46221;51.178;5.900;2023-02-12T07:31:49;14.50;;;10.48;;
50337;SDS011;46221;51.178;5.900;2023-02-12T07:34:16;13.02;;;10.43;;
50337;SDS011;46221;51.178;5.900;2023-02-12T07:36:42;15.55;;;11.02;;
50337;SDS011;46221;51.178;5.900;2023-02-12T07:39:10;18.33;;;11.93;;
50337;SDS011;46221;51.178;5.900;2023-02-12T07:41:37;19.23;;;13.60;;
50337;SDS011;46221;51.178;5.900;2023-02-12T07:44:05;17.42;;;13.80;;
50337;SDS011;46221;51.178;5.900;2023-02-12T07:46:41;21.25;;;15.18;;
50337;SDS011;46221;51.178;5.900;2023-02-12T07:49:14;20.85;;;15.55;;
50337;SDS011;46221;51.178;5.900;2023-02-12T07:51:42;21.65;;;16.27;;
50337;SDS011;46221;51.178;5.900;2023-02-12T07:54:09;21.38;;;15.85;;
50337;SDS011;46221;51.178;5.900;2023-02-12T07:56:37;22.23;;;16.48;;
50337;SDS011;46221;51.178;5.900;2023-02-12T07:59:06;26.40;;;18.63;;
50337;SDS011;46221;51.178;5.900;2023-02-12T08:01:38;24.55;;;17.15;;
50337;SDS011;46221;51.178;5.900;2023-02-12T08:04:07;28.65;;;19.58;;
50337;SDS011;46221;51.178;5.900;2023-02-12T08:06:36;25.52;;;18.80;;
50337;SDS011;46221;51.178;5.900;2023-02-12T08:09:06;25.77;;;18.38;;
50337;SDS011;46221;51.178;5.900;2023-02-12T08:11:35;28.65;;;20.23;;
50337;SDS011;46221;51.178;5.900;2023-02-12T08:14:02;27.92;;;20.05;;
50337;SDS011;46221;51.178;5.900;2023-02-12T08:16:29;26.58;;;20.30;;
50337;SDS011;46221;51.178;5.900;2023-02-12T08:18:57;27.65;;;21.70;;
50337;SDS011;46221;51.178;5.900;2023-02-12T08:21:41;30.83;;;21.63;;
50337;SDS011;46221;51.178;5.900;2023-02-12T08:24:08;29.55;;;22.00;;
50337;SDS011;46221;51.178;5.900;2023-02-12T08:26:36;29.98;;;21.10;;
50337;SDS011;46221;51.178;5.900;2023-02-12T08:29:05;29.10;;;21.67;;
50337;SDS011;46221;51.178;5.900;2023-02-12T08:31:33;28.40;;;21.15;;
50337;SDS011;46221;51.178;5.900;2023-02-12T08:34:01;25.02;;;19.13;;
50337;SDS011;46221;51.178;5.900;2023-02-12T08:36:29;23.90;;;18.60;;
50337;SDS011;46221;51.178;5.900;2023-02-12T08:39:00;28.10;;;18.67;;
50337;SDS011;46221;51.178;5.900;2023-02-12T08:41:27;23.95;;;17.70;;
50337;SDS011;46221;51.178;5.900;2023-02-12T08:43:56;24.50;;;18.17;;
50337;SDS011;46221;51.178;5.900;2023-02-12T08:46:25;24.88;;;18.27;;
50337;SDS011;46221;51.178;5.900;2023-02-12T08:48:55;23.33;;;18.20;;
50337;SDS011;46221;51.178;5.900;2023-02-12T08:51:24;24.48;;;17.48;;
50337;SDS011;46221;51.178;5.900;2023-02-12T08:53:55;24.30;;;17.50;;
50337;SDS011;46221;51.178;5.900;2023-02-12T08:56:24;24.20;;;18.35;;
50337;SDS011;46221;51.178;5.900;2023-02-12T08:58:51;24.20;;;17.75;;
50337;SDS011;46221;51.178;5.900;2023-02-12T09:01:20;26.88;;;18.90;;
50337;SDS011;46221;51.178;5.900;2023-02-12T09:03:48;22.45;;;18.02;;
50337;SDS011;46221;51.178;5.900;2023-02-12T09:06:16;26.42;;;18.98;;
50337;SDS011;46221;51.178;5.900;2023-02-12T09:08:44;25.30;;;19.65;;
50337;SDS011;46221;51.178;5.900;2023-02-12T09:11:12;26.02;;;18.92;;
50337;SDS011;46221;51.178;5.900;2023-02-12T09:13:42;25.23;;;19.30;;
50337;SDS011;46221;51.178;5.900;2023-02-12T09:16:10;26.33;;;20.35;;
50337;SDS011;46221;51.178;5.900;2023-02-12T09:18:37;27.17;;;18.98;;
50337;SDS011;46221;51.178;5.900;2023-02-12T09:21:08;28.30;;;19.92;;
50337;SDS011;46221;51.178;5.900;2023-02-12T09:23:36;26.85;;;19.35;;
50337;SDS011;46221;51.178;5.900;2023-02-12T09:26:04;30.38;;;21.98;;
50337;SDS011;46221;51.178;5.900;2023-02-12T09:28:35;28.50;;;20.83;;
50337;SDS011;46221;51.178;5.900;2023-02-12T09:31:06;27.88;;;19.88;;
50337;SDS011;46221;51.178;5.900;2023-02-12T09:33:34;27.70;;;20.40;;
50337;SDS011;46221;51.178;5.900;2023-02-12T09:36:01;27.42;;;20.80;;
50337;SDS011;46221;51.178;5.900;2023-02-12T09:38:29;28.83;;;21.02;;
50337;SDS011;46221;51.178;5.900;2023-02-12T09:43:32;30.25;;;20.88;;
50337;SDS011;46221;51.178;5.900;2023-02-12T09:48:52;30.92;;;22.27;;
50337;SDS011;46221;51.178;5.900;2023-02-12T09:51:33;32.13;;;22.23;;
50337;SDS011;46221;51.178;5.900;2023-02-12T09:54:13;32.65;;;22.60;;
50337;SDS011;46221;51.178;5.900;2023-02-12T09:56:43;26.73;;;20.15;;
50337;SDS011;46221;51.178;5.900;2023-02-12T09:59:17;30.05;;;22.35;;
50337;SDS011;46221;51.178;5.900;2023-02-12T10:01:56;28.48;;;21.80;;
50337;SDS011;46221;51.178;5.900;2023-02-12T10:04:23;31.67;;;22.40;;
50337;SDS011;46221;51.178;5.900;2023-02-12T10:07:28;29.95;;;21.17;;
50337;SDS011;46221;51.178;5.900;2023-02-12T10:12:54;32.55;;;23.02;;
50337;SDS011;46221;51.178;5.900;2023-02-12T10:24:01;31.15;;;21.77;;
50337;SDS011;46221;51.178;5.900;2023-02-12T10:26:47;31.60;;;22.40;;
50337;SDS011;46221;51.178;5.900;2023-02-12T10:29:19;32.75;;;22.85;;
50337;SDS011;46221;51.178;5.900;2023-02-12T10:31:53;30.40;;;22.38;;
50337;SDS011;46221;51.178;5.900;2023-02-12T10:34:31;29.15;;;21.60;;
50337;SDS011;46221;51.178;5.900;2023-02-12T10:42:52;32.03;;;23.40;;
50337;SDS011;46221;51.178;5.900;2023-02-12T10:45:20;29.23;;;22.73;;
50337;SDS011;46221;51.178;5.900;2023-02-12T10:48:00;30.80;;;21.83;;
50337;SDS011;46221;51.178;5.900;2023-02-12T10:53:23;32.92;;;23.00;;
50337;SDS011;46221;51.178;5.900;2023-02-12T10:56:03;29.63;;;21.20;;
50337;SDS011;46221;51.178;5.900;2023-02-12T10:58:31;28.98;;;21.48;;
50337;SDS011;46221;51.178;5.900;2023-02-12T11:00:59;29.10;;;21.63;;
50337;SDS011;46221;51.178;5.900;2023-02-12T11:03:28;29.45;;;20.88;;
50337;SDS011;46221;51.178;5.900;2023-02-12T11:06:13;27.95;;;20.50;;
50337;SDS011;46221;51.178;5.900;2023-02-12T11:08:42;32.88;;;21.40;;
50337;SDS011;46221;51.178;5.900;2023-02-12T11:13:40;28.17;;;20.42;;
50337;SDS011;46221;51.178;5.900;2023-02-12T11:16:11;29.27;;;20.20;;
50337;SDS011;46221;51.178;5.900;2023-02-12T11:18:38;28.67;;;20.92;;
50337;SDS011;46221;51.178;5.900;2023-02-12T11:21:05;27.95;;;22.00;;
50337;SDS011;46221;51.178;5.900;2023-02-12T11:26:04;28.90;;;21.60;;
50337;SDS011;46221;51.178;5.900;2023-02-12T11:28:56;30.30;;;21.52;;
50337;SDS011;46221;51.178;5.900;2023-02-12T11:31:30;28.38;;;21.25;;
50337;SDS011;46221;51.178;5.900;2023-02-12T11:34:20;27.75;;;20.38;;
50337;SDS011;46221;51.178;5.900;2023-02-12T11:36:48;25.63;;;19.85;;
50337;SDS011;46221;51.178;5.900;2023-02-12T11:41:50;25.30;;;19.52;;
50337;SDS011;46221;51.178;5.900;2023-02-12T11:44:26;26.23;;;19.10;;
50337;SDS011;46221;51.178;5.900;2023-02-12T11:46:57;29.05;;;19.85;;
50337;SDS011;46221;51.178;5.900;2023-02-12T11:49:32;26.13;;;19.25;;
50337;SDS011;46221;51.178;5.900;2023-02-12T11:52:04;25.85;;;19.55;;
50337;SDS011;46221;51.178;5.900;2023-02-12T11:54:39;26.30;;;18.92;;
50337;SDS011;46221;51.178;5.900;2023-02-12T11:57:33;26.10;;;18.75;;
50337;SDS011;46221;51.178;5.900;2023-02-12T12:00:10;24.70;;;19.23;;
50337;SDS011;46221;51.178;5.900;2023-02-12T12:02:38;24.10;;;17.67;;
50337;SDS011;46221;51.178;5.900;2023-02-12T12:05:17;24.33;;;18.45;;
50337;SDS011;46221;51.178;5.900;2023-02-12T12:07:51;23.33;;;18.08;;
50337;SDS011;46221;51.178;5.900;2023-02-12T12:12:52;27.70;;;18.30;;
50337;SDS011;46221;51.178;5.900;2023-02-12T12:15:23;24.90;;;18.80;;
50337;SDS011;46221;51.178;5.900;2023-02-12T12:21:33;24.25;;;18.95;;
50337;SDS011;46221;51.178;5.900;2023-02-12T12:24:14;24.10;;;17.45;;
50337;SDS011;46221;51.178;5.900;2023-02-12T12:26:46;22.52;;;17.55;;
50337;SDS011;46221;51.178;5.900;2023-02-12T12:29:26;25.00;;;17.50;;
50337;SDS011;46221;51.178;5.900;2023-02-12T12:32:10;25.17;;;16.90;;
50337;SDS011;46221;51.178;5.900;2023-02-12T12:34:39;21.50;;;16.90;;
50337;SDS011;46221;51.178;5.900;2023-02-12T12:37:13;21.85;;;17.20;;
50337;SDS011;46221;51.178;5.900;2023-02-12T12:40:03;23.17;;;16.88;;
50337;SDS011;46221;51.178;5.900;2023-02-12T12:48:26;20.00;;;15.98;;
50337;SDS011;46221;51.178;5.900;2023-02-12T12:56:44;22.17;;;16.20;;
50337;SDS011;46221;51.178;5.900;2023-02-12T13:16:20;21.27;;;15.57;;
50337;SDS011;46221;51.178;5.900;2023-02-12T13:22:00;20.63;;;16.02;;
50337;SDS011;46221;51.178;5.900;2023-02-12T13:25:00;18.90;;;15.13;;
50337;SDS011;46221;51.178;5.900;2023-02-12T13:27:34;19.00;;;14.50;;
50337;SDS011;46221;51.178;5.900;2023-02-12T13:30:06;19.63;;;14.10;;
50337;SDS011;46221;51.178;5.900;2023-02-12T13:32:43;18.67;;;14.13;;
50337;SDS011;46221;51.178;5.900;2023-02-12T13:35:19;22.77;;;15.50;;
50337;SDS011;46221;51.178;5.900;2023-02-12T13:37:50;21.20;;;15.20;;
50337;SDS011;46221;51.178;5.900;2023-02-12T13:40:26;19.88;;;15.68;;
50337;SDS011;46221;51.178;5.900;2023-02-12T13:43:10;21.25;;;13.75;;
50337;SDS011;46221;51.178;5.900;2023-02-12T13:51:20;19.48;;;14.20;;
50337;SDS011;46221;51.178;5.900;2023-02-12T13:56:55;19.98;;;13.75;;
50337;SDS011;46221;51.178;5.900;2023-02-12T14:02:01;19.83;;;14.87;;
50337;SDS011;46221;51.178;5.900;2023-02-12T14:05:14;19.67;;;14.85;;
50337;SDS011;46221;51.178;5.900;2023-02-12T14:07:21;17.80;;;14.20;;
50337;SDS011;46221;51.178;5.900;2023-02-12T14:12:15;19.25;;;13.95;;
50337;SDS011;46221;51.178;5.900;2023-02-12T14:14:55;19.83;;;14.15;;
50337;SDS011;46221;51.178;5.900;2023-02-12T14:20:11;17.42;;;13.15;;
50337;SDS011;46221;51.178;5.900;2023-02-12T14:22:57;17.63;;;13.98;;
50337;SDS011;46221;51.178;5.900;2023-02-12T14:25:36;16.00;;;12.57;;
50337;SDS011;46221;51.178;5.900;2023-02-12T14:30:38;17.58;;;12.77;;
50337;SDS011;46221;51.178;5.900;2023-02-12T14:38:02;19.63;;;13.10;;
50337;SDS011;46221;51.178;5.900;2023-02-12T14:40:51;16.98;;;12.77;;
50337;SDS011;46221;51.178;5.900;2023-02-12T14:43:34;18.23;;;13.00;;
50337;SDS011;46221;51.178;5.900;2023-02-12T14:56:49;20.15;;;12.32;;
50337;SDS011;46221;51.178;5.900;2023-02-12T14:59:18;16.30;;;12.32;;
50337;SDS011;46221;51.178;5.900;2023-02-12T15:01:47;18.48;;;12.55;;
50337;SDS011;46221;51.178;5.900;2023-02-12T15:04:16;17.48;;;13.13;;
50337;SDS011;46221;51.178;5.900;2023-02-12T15:07:08;17.70;;;11.93;;
50337;SDS011;46221;51.178;5.900;2023-02-12T15:09:41;17.58;;;12.80;;
50337;SDS011;46221;51.178;5.900;2023-02-12T15:12:25;16.10;;;11.43;;
50337;SDS011;46221;51.178;5.900;2023-02-12T15:15:10;16.08;;;12.18;;
50337;SDS011;46221;51.178;5.900;2023-02-12T15:17:53;16.83;;;11.93;;
50337;SDS011;46221;51.178;5.900;2023-02-12T15:20:27;18.27;;;11.93;;
50337;SDS011;46221;51.178;5.900;2023-02-12T15:23:25;15.07;;;11.77;;
50337;SDS011;46221;51.178;5.900;2023-02-12T15:25:57;16.00;;;11.48;;
50337;SDS011;46221;51.178;5.900;2023-02-12T15:28:27;14.95;;;11.45;;
50337;SDS011;46221;51.178;5.900;2023-02-12T15:30:59;15.95;;;11.25;;
50337;SDS011;46221;51.178;5.900;2023-02-12T15:33:28;15.80;;;12.38;;
50337;SDS011;46221;51.178;5.900;2023-02-12T15:36:08;16.15;;;11.35;;
50337;SDS011;46221;51.178;5.900;2023-02-12T15:38:37;14.07;;;11.13;;
50337;SDS011;46221;51.178;5.900;2023-02-12T15:41:07;16.58;;;12.40;;
50337;SDS011;46221;51.178;5.900;2023-02-12T15:43:48;16.13;;;11.55;;
50337;SDS011;46221;51.178;5.900;2023-02-12T15:46:15;17.27;;;11.65;;
50337;SDS011;46221;51.178;5.900;2023-02-12T15:48:43;14.50;;;10.68;;
50337;SDS011;46221;51.178;5.900;2023-02-12T15:51:15;16.77;;;11.77;;
50337;SDS011;46221;51.178;5.900;2023-02-12T15:53:50;16.58;;;11.02;;
50337;SDS011;46221;51.178;5.900;2023-02-12T15:56:19;14.25;;;10.25;;
50337;SDS011;46221;51.178;5.900;2023-02-12T15:58:49;15.40;;;10.35;;
50337;SDS011;46221;51.178;5.900;2023-02-12T16:01:19;16.98;;;11.13;;
50337;SDS011;46221;51.178;5.900;2023-02-12T16:03:57;18.20;;;10.68;;
50337;SDS011;46221;51.178;5.900;2023-02-12T16:06:26;16.60;;;10.65;;
50337;SDS011;46221;51.178;5.900;2023-02-12T16:09:03;15.75;;;10.40;;
50337;SDS011;46221;51.178;5.900;2023-02-12T16:11:31;18.90;;;11.23;;
50337;SDS011;46221;51.178;5.900;2023-02-12T16:13:59;16.90;;;9.82;;
50337;SDS011;46221;51.178;5.900;2023-02-12T16:16:30;17.73;;;11.15;;
50337;SDS011;46221;51.178;5.900;2023-02-12T16:19:19;17.23;;;11.55;;
50337;SDS011;46221;51.178;5.900;2023-02-12T16:21:49;16.38;;;10.88;;
50337;SDS011;46221;51.178;5.900;2023-02-12T16:26:45;14.68;;;11.13;;
50337;SDS011;46221;51.178;5.900;2023-02-12T16:29:16;16.73;;;11.00;;
50337;SDS011;46221;51.178;5.900;2023-02-12T16:32:01;14.82;;;11.18;;
50337;SDS011;46221;51.178;5.900;2023-02-12T16:37:00;17.75;;;11.63;;
50337;SDS011;46221;51.178;5.900;2023-02-12T16:40:01;15.25;;;10.80;;
50337;SDS011;46221;51.178;5.900;2023-02-12T16:42:37;18.05;;;12.50;;
50337;SDS011;46221;51.178;5.900;2023-02-12T16:50:30;19.65;;;14.00;;
50337;SDS011;46221;51.178;5.900;2023-02-12T16:53:00;20.60;;;14.60;;
50337;SDS011;46221;51.178;5.900;2023-02-12T16:55:29;19.58;;;14.30;;
50337;SDS011;46221;51.178;5.900;2023-02-12T16:57:58;25.20;;;15.07;;
50337;SDS011;46221;51.178;5.900;2023-02-12T17:00:26;19.13;;;14.35;;
50337;SDS011;46221;51.178;5.900;2023-02-12T17:02:53;19.17;;;14.23;;
50337;SDS011;46221;51.178;5.900;2023-02-12T17:05:21;19.25;;;13.77;;
50337;SDS011;46221;51.178;5.900;2023-02-12T17:07:48;16.15;;;12.20;;
50337;SDS011;46221;51.178;5.900;2023-02-12T17:10:15;16.65;;;12.63;;
50337;SDS011;46221;51.178;5.900;2023-02-12T17:12:52;17.23;;;12.32;;
50337;SDS011;46221;51.178;5.900;2023-02-12T17:15:24;21.20;;;12.23;;
50337;SDS011;46221;51.178;5.900;2023-02-12T17:17:55;17.50;;;12.68;;
50337;SDS011;46221;51.178;5.900;2023-02-12T17:20:23;17.55;;;12.43;;